Time;durP1;ratioP1;P1;durP2;ratioP2;P2;SDS_P1;SDS_P2;PMS_P1;PMS_P2;Temp;Humidity;BMP_temperature;BMP_pressure;BME280_temperature;BME280_humidity;BME280_pressure;Samples;Min_cycle;Max_cycle;Signal;HPM_P1;HPM_P2
2022/07/14 00:01:23;;;;;;;1.73;1.10;;;23.80;83.60;;;;;;5118788;28;20451;-93
2022/07/14 00:03:49;;;;;;;1.83;1.23;;;23.80;83.60;;;;;;5117144;28;20430;-92
2022/07/14 00:06:16;;;;;;;5.53;1.50;;;23.80;83.70;;;;;;5117478;28;20454;-94
2022/07/14 00:08:44;;;;;;;1.20;1.10;;;23.80;83.80;;;;;;5115419;28;20178;-93
2022/07/14 00:11:11;;;;;;;3.53;1.40;;;23.80;83.80;;;;;;5118084;28;20413;-93
2022/07/14 00:13:37;;;;;;;3.20;1.60;;;23.80;83.90;;;;;;5117364;28;20484;-92
2022/07/14 00:16:04;;;;;;;1.80;1.70;;;23.80;83.90;;;;;;5114530;28;20780;-94
2022/07/14 00:18:30;;;;;;;1.60;1.13;;;23.80;83.90;;;;;;5115556;28;20429;-93
2022/07/14 00:20:56;;;;;;;1.40;1.30;;;23.80;84.00;;;;;;5115343;28;20401;-92
2022/07/14 00:23:24;;;;;;;1.30;1.20;;;23.70;84.10;;;;;;5114286;28;20484;-93
2022/07/14 00:25:51;;;;;;;1.43;1.33;;;23.70;84.10;;;;;;5115356;28;20507;-93
2022/07/14 00:28:16;;;;;;;3.30;1.50;;;23.70;84.20;;;;;;5114382;28;20464;-91
2022/07/14 00:30:44;;;;;;;1.90;1.03;;;23.70;84.30;;;;;;5114252;28;20413;-92
2022/07/14 00:33:10;;;;;;;1.10;1.10;;;23.60;84.40;;;;;;5114049;28;20475;-93
2022/07/14 00:35:35;;;;;;;5.10;1.30;;;23.60;84.50;;;;;;5115312;28;20908;-92
2022/07/14 00:38:04;;;;;;;1.70;1.10;;;23.60;84.70;;;;;;5116849;28;20193;-93
2022/07/14 00:40:29;;;;;;;1.90;1.80;;;23.60;85.50;;;;;;5114366;28;20175;-93
2022/07/14 00:42:55;;;;;;;1.03;1.03;;;23.50;85.00;;;;;;5114232;28;20441;-94
2022/07/14 00:45:22;;;;;;;1.27;1.20;;;23.50;85.10;;;;;;5115422;28;20420;-92
2022/07/14 00:47:48;;;;;;;2.10;1.40;;;23.40;85.30;;;;;;5115306;28;20197;-93
2022/07/14 00:50:16;;;;;;;1.40;1.30;;;23.40;85.50;;;;;;5114431;28;20470;-93
2022/07/14 00:52:43;;;;;;;1.60;1.50;;;23.40;85.60;;;;;;5118088;28;20476;-92
2022/07/14 00:55:13;;;;;;;1.80;1.63;;;23.30;85.70;;;;;;5114082;28;20431;-93
2022/07/14 00:57:39;;;;;;;1.70;1.47;;;23.30;85.80;;;;;;5115014;28;20450;-93
2022/07/14 01:00:06;;;;;;;1.53;1.43;;;23.30;85.90;;;;;;5114763;28;20452;-93
2022/07/14 01:02:32;;;;;;;2.03;1.60;;;23.30;86.10;;;;;;5114850;28;20199;-94
2022/07/14 01:04:58;;;;;;;1.60;1.50;;;23.20;86.10;;;;;;5114789;28;20527;-94
2022/07/14 01:07:24;;;;;;;2.53;1.33;;;23.20;86.10;;;;;;5119474;28;20227;-93
2022/07/14 01:09:49;;;;;;;2.30;1.60;;;23.20;86.20;;;;;;5117986;28;20282;-93
2022/07/14 01:12:15;;;;;;;1.53;1.43;;;23.10;86.30;;;;;;5113500;28;20282;-93
2022/07/14 01:14:41;;;;;;;2.50;1.67;;;23.10;86.60;;;;;;5114595;28;20191;-92
2022/07/14 01:17:09;;;;;;;1.40;1.30;;;23.10;86.60;;;;;;5114474;28;20231;-94
2022/07/14 01:19:35;;;;;;;1.50;1.40;;;23.10;86.80;;;;;;5117406;28;20444;-94
2022/07/14 01:22:01;;;;;;;1.60;1.20;;;23.00;86.70;;;;;;5114937;28;20424;-92
2022/07/14 01:24:28;;;;;;;1.60;1.50;;;23.00;87.60;;;;;;5114261;28;20430;-94
2022/07/14 01:26:54;;;;;;;2.77;1.40;;;23.00;87.00;;;;;;5113572;28;20488;-94
2022/07/14 01:29:20;;;;;;;1.40;1.30;;;23.00;87.80;;;;;;5113979;28;20432;-92
2022/07/14 01:31:46;;;;;;;1.43;1.33;;;23.00;87.10;;;;;;5115017;28;20443;-93
2022/07/14 01:34:12;;;;;;;5.50;1.80;;;23.00;87.20;;;;;;5114202;28;20510;-93
2022/07/14 01:36:39;;;;;;;2.63;1.40;;;23.00;87.20;;;;;;5113581;28;20450;-93
2022/07/14 01:39:06;;;;;;;1.97;1.50;;;23.00;87.20;;;;;;5115602;28;20416;-93
2022/07/14 01:41:32;;;;;;;3.33;1.83;;;22.90;87.30;;;;;;5117411;28;20432;-93
2022/07/14 01:43:58;;;;;;;2.53;1.60;;;22.90;87.40;;;;;;5118299;28;20423;-93
2022/07/14 01:46:24;;;;;;;1.57;1.47;;;22.90;87.40;;;;;;5119589;28;20952;-93
2022/07/14 01:48:50;;;;;;;1.83;1.40;;;22.90;87.50;;;;;;5118442;28;20420;-92
2022/07/14 01:51:16;;;;;;;1.60;1.50;;;22.90;87.60;;;;;;5118358;28;20220;-93
2022/07/14 01:53:43;;;;;;;1.70;1.53;;;22.90;87.80;;;;;;5116888;28;20532;-93
2022/07/14 01:56:09;;;;;;;1.50;1.40;;;22.90;87.90;;;;;;5117839;28;20922;-93
2022/07/14 01:58:35;;;;;;;1.50;1.40;;;22.90;88.00;;;;;;5118589;28;20465;-92
2022/07/14 02:03:46;;;;;;;1.60;1.50;;;22.80;88.10;;;;;;5118164;28;20378;-93
2022/07/14 02:06:12;;;;;;;1.87;1.70;;;22.80;88.20;;;;;;5118832;28;20471;-93
2022/07/14 02:08:38;;;;;;;1.47;1.37;;;22.80;88.40;;;;;;5123496;28;20670;-93
2022/07/14 02:13:48;;;;;;;1.47;1.37;;;22.80;88.40;;;;;;5118399;28;20471;-93
2022/07/14 02:16:14;;;;;;;1.43;1.33;;;22.80;89.20;;;;;;5116416;28;20408;-93
2022/07/14 02:18:40;;;;;;;2.13;1.50;;;22.80;88.50;;;;;;5116578;28;20416;-93
2022/07/14 02:21:06;;;;;;;2.20;1.30;;;22.80;88.60;;;;;;5121361;28;20183;-93
2022/07/14 02:23:31;;;;;;;2.10;1.47;;;22.70;88.60;;;;;;5116662;28;20183;-93
2022/07/14 02:25:58;;;;;;;1.63;1.53;;;22.70;88.70;;;;;;5116558;28;20420;-93
2022/07/14 02:28:24;;;;;;;1.73;1.63;;;22.70;88.90;;;;;;5117293;28;20188;-93
2022/07/14 02:30:49;;;;;;;2.50;1.67;;;22.70;88.90;;;;;;5116343;28;20430;-93
2022/07/14 02:33:15;;;;;;;5.03;1.60;;;22.70;88.90;;;;;;5117924;28;20749;-94
2022/07/14 02:35:41;;;;;;;1.43;1.33;;;22.70;89.10;;;;;;5116469;28;20171;-93
2022/07/14 02:38:07;;;;;;;1.80;1.70;;;22.70;89.10;;;;;;5121468;28;20560;-92
2022/07/14 02:40:32;;;;;;;1.70;1.60;;;22.60;89.20;;;;;;5120800;28;20179;-94
2022/07/14 02:42:59;;;;;;;4.70;1.80;;;22.60;89.30;;;;;;5115943;28;20204;-94
2022/07/14 02:45:24;;;;;;;1.73;1.63;;;22.60;89.40;;;;;;5117497;28;20172;-93
2022/07/14 02:47:50;;;;;;;3.40;1.50;;;22.50;89.50;;;;;;5117237;28;20438;-93
2022/07/14 02:50:16;;;;;;;3.80;1.57;;;22.50;89.60;;;;;;5115571;28;20183;-91
2022/07/14 02:52:42;;;;;;;2.03;1.80;;;22.50;89.90;;;;;;5115897;28;20281;-93
2022/07/14 02:55:08;;;;;;;1.57;1.47;;;22.40;89.90;;;;;;5117592;28;20181;-93
2022/07/14 02:57:33;;;;;;;1.83;1.73;;;22.40;90.00;;;;;;5115790;28;20192;-94
2022/07/14 02:59:59;;;;;;;1.70;1.60;;;22.40;90.00;;;;;;5116829;28;20403;-93
2022/07/14 03:02:25;;;;;;;1.73;1.43;;;22.40;90.00;;;;;;5116772;28;20203;-93
2022/07/14 03:04:51;;;;;;;2.00;1.70;;;22.40;90.10;;;;;;5115748;28;20224;-93
2022/07/14 03:07:17;;;;;;;1.97;1.87;;;22.40;90.10;;;;;;5116854;28;20496;-93
2022/07/14 03:09:43;;;;;;;3.40;1.40;;;22.40;90.10;;;;;;5115569;28;20663;-92
2022/07/14 03:12:09;;;;;;;1.50;1.40;;;22.40;90.00;;;;;;5116841;28;20436;-94
2022/07/14 03:14:35;;;;;;;1.60;1.50;;;22.40;90.10;;;;;;5117220;28;20172;-92
2022/07/14 03:17:00;;;;;;;1.60;1.50;;;22.40;90.10;;;;;;5115361;28;20235;-93
2022/07/14 03:19:26;;;;;;;1.70;1.60;;;22.40;90.20;;;;;;5116514;28;20552;-93
2022/07/14 03:21:53;;;;;;;2.53;1.90;;;22.40;90.30;;;;;;5115536;28;20247;-93
2022/07/14 03:24:20;;;;;;;5.83;2.17;;;22.40;90.30;;;;;;5116347;28;20240;-93
2022/07/14 03:26:46;;;;;;;3.10;2.07;;;22.30;90.30;;;;;;5116948;28;20912;-93
2022/07/14 03:29:12;;;;;;;2.23;1.87;;;22.30;90.40;;;;;;5115186;28;20499;-92
2022/07/14 03:31:38;;;;;;;7.33;4.50;;;22.30;90.40;;;;;;5115279;28;20494;-93
2022/07/14 03:34:05;;;;;;;5.43;3.27;;;22.30;90.50;;;;;;5114851;28;20983;-91
2022/07/14 03:36:31;;;;;;;5.70;4.30;;;22.20;90.50;;;;;;5115303;28;20590;-93
2022/07/14 03:38:56;;;;;;;2.30;2.00;;;22.20;90.60;;;;;;5118846;28;20921;-93
2022/07/14 03:41:22;;;;;;;5.30;2.20;;;22.20;90.70;;;;;;5115085;28;20451;-93
2022/07/14 03:43:48;;;;;;;1.87;1.77;;;22.20;90.70;;;;;;5117741;28;20198;-92
2022/07/14 03:46:14;;;;;;;2.97;2.13;;;22.20;90.80;;;;;;5117695;28;20270;-93
2022/07/14 03:48:40;;;;;;;3.03;2.07;;;22.20;90.80;;;;;;5114972;28;20171;-92
2022/07/14 03:51:06;;;;;;;3.27;2.30;;;22.20;90.80;;;;;;5115786;28;20648;-93
2022/07/14 03:53:32;;;;;;;2.80;2.03;;;22.20;90.80;;;;;;5123416;28;20513;-94
2022/07/14 03:55:59;;;;;;;2.10;1.80;;;22.20;90.80;;;;;;5116423;28;20416;-93
2022/07/14 03:58:25;;;;;;;3.20;1.90;;;22.30;90.80;;;;;;5114961;28;20788;-93
2022/07/14 04:00:51;;;;;;;1.40;1.30;;;22.30;90.80;;;;;;5114174;28;20432;-93
2022/07/14 04:03:17;;;;;;;2.10;1.90;;;22.30;90.90;;;;;;5114294;28;20424;-94
2022/07/14 04:05:43;;;;;;;1.90;1.80;;;22.30;90.90;;;;;;5116199;28;20420;-94
2022/07/14 04:08:10;;;;;;;4.17;1.97;;;22.30;91.00;;;;;;5119987;28;20919;-93
2022/07/14 04:10:36;;;;;;;2.30;1.90;;;22.30;91.00;;;;;;5114770;28;20244;-94
2022/07/14 04:13:02;;;;;;;2.03;1.83;;;22.30;91.10;;;;;;5114692;28;20468;-93
2022/07/14 04:15:29;;;;;;;3.20;2.00;;;22.40;91.10;;;;;;5114563;28;20424;-94
2022/07/14 04:17:55;;;;;;;2.40;1.93;;;22.40;91.10;;;;;;5115337;28;20183;-93
2022/07/14 04:20:21;;;;;;;1.80;1.70;;;22.40;91.10;;;;;;5117423;28;20420;-92
2022/07/14 04:22:48;;;;;;;1.90;1.70;;;22.40;91.10;;;;;;5118952;28;20535;-93
2022/07/14 04:25:14;;;;;;;2.00;1.90;;;22.50;91.10;;;;;;5114042;28;20404;-94
2022/07/14 04:27:40;;;;;;;2.07;1.90;;;22.50;91.10;;;;;;5114458;28;20439;-93
2022/07/14 04:30:08;;;;;;;3.03;1.73;;;22.50;91.10;;;;;;5114207;28;20757;-93
2022/07/14 04:32:34;;;;;;;1.83;1.73;;;22.60;91.20;;;;;;5115252;28;20483;-93
2022/07/14 04:35:00;;;;;;;1.93;1.60;;;22.60;91.10;;;;;;5115382;28;20428;-93
2022/07/14 04:37:26;;;;;;;3.83;2.30;;;22.70;91.10;;;;;;5115829;28;20199;-94
2022/07/14 04:39:54;;;;;;;4.93;2.97;;;22.70;91.10;;;;;;5115226;28;20431;-92
2022/07/14 04:42:21;;;;;;;2.17;1.87;;;22.80;91.10;;;;;;5100449;28;20464;-93
2022/07/14 04:44:47;;;;;;;6.10;2.07;;;22.80;91.00;;;;;;5094951;28;20416;-94
2022/07/14 04:47:13;;;;;;;10.30;2.03;;;22.90;91.10;;;;;;5093863;28;20457;-93
2022/07/14 04:52:23;;;;;;;2.20;2.00;;;22.90;91.30;;;;;;5114999;28;20450;-93
2022/07/14 04:54:48;;;;;;;9.00;2.17;;;23.00;91.40;;;;;;5113869;28;20420;-92
2022/07/14 04:57:14;;;;;;;2.60;2.33;;;23.10;91.40;;;;;;5115305;28;20235;-93
2022/07/14 04:59:40;;;;;;;3.73;2.03;;;23.10;91.20;;;;;;5114227;28;20183;-92
2022/07/14 05:02:06;;;;;;;3.27;1.70;;;23.20;91.20;;;;;;5113181;28;20657;-94
2022/07/14 05:04:32;;;;;;;7.20;2.10;;;23.20;91.40;;;;;;5109434;28;20179;-92
2022/07/14 05:06:58;;;;;;;6.23;1.93;;;23.30;91.20;;;;;;5114068;28;20484;-93
2022/07/14 05:09:32;;;;;;;2.37;1.70;;;23.30;91.20;;;;;;5112837;28;20404;-93
2022/07/14 05:11:57;;;;;;;5.13;1.90;;;23.40;91.40;;;;;;5114086;28;20982;-93
2022/07/14 05:14:23;;;;;;;1.87;1.67;;;23.40;91.00;;;;;;5119970;28;20531;-92
2022/07/14 05:16:49;;;;;;;5.00;2.00;;;23.50;90.90;;;;;;5119552;28;20674;-94
2022/07/14 05:19:16;;;;;;;1.87;1.77;;;23.50;90.80;;;;;;5117804;28;20545;-93
2022/07/14 05:21:42;;;;;;;1.67;1.53;;;23.60;90.60;;;;;;5118760;28;20188;-93
2022/07/14 05:24:09;;;;;;;1.93;1.70;;;23.60;90.70;;;;;;5117591;28;20429;-93
2022/07/14 05:26:35;;;;;;;2.30;2.13;;;23.70;90.90;;;;;;5119840;28;20543;-94
2022/07/14 05:29:01;;;;;;;2.77;1.80;;;23.80;90.70;;;;;;5118958;28;20445;-92
2022/07/14 05:31:28;;;;;;;38.47;22.20;;;23.80;90.80;;;;;;5119890;28;20448;-94
2022/07/14 05:33:55;;;;;;;35.53;22.53;;;23.90;90.60;;;;;;5118351;28;20492;-93
2022/07/14 05:36:22;;;;;;;8.07;6.40;;;24.00;90.60;;;;;;5117467;28;20453;-94
2022/07/14 05:38:48;;;;;;;2.83;2.30;;;24.10;90.50;;;;;;5116125;28;20510;-93
2022/07/14 05:41:14;;;;;;;4.70;3.10;;;24.10;90.30;;;;;;5115875;28;20528;-93
2022/07/14 05:43:43;;;;;;;1.93;1.80;;;24.20;90.10;;;;;;5118452;28;20413;-92
2022/07/14 05:46:10;;;;;;;2.60;2.07;;;24.20;89.80;;;;;;5118617;28;20489;-93
2022/07/14 05:48:37;;;;;;;2.30;2.03;;;24.30;89.00;;;;;;5117067;28;20492;-94
2022/07/14 05:51:08;;;;;;;1.87;1.70;;;24.30;89.40;;;;;;5116514;28;20434;-94
2022/07/14 05:53:35;;;;;;;1.97;1.87;;;24.40;89.00;;;;;;5116100;28;20482;-93
2022/07/14 05:56:02;;;;;;;3.90;1.67;;;24.50;89.30;;;;;;5116270;28;20783;-94
2022/07/14 05:58:28;;;;;;;3.90;2.10;;;24.50;89.70;;;;;;5116901;28;21015;-94
2022/07/14 06:00:54;;;;;;;10.90;1.93;;;24.60;88.80;;;;;;5122092;28;20429;-94
2022/07/14 06:03:20;;;;;;;2.00;1.80;;;24.70;88.40;;;;;;5135272;28;20935;-93
2022/07/14 06:05:46;;;;;;;2.00;1.90;;;24.80;87.70;;;;;;5128771;28;20260;-94
2022/07/14 06:08:12;;;;;;;2.00;1.90;;;24.80;87.70;;;;;;5102067;28;20198;-94
2022/07/14 06:10:38;;;;;;;2.03;1.93;;;24.90;87.70;;;;;;5095923;28;20432;-94
2022/07/14 06:13:03;;;;;;;7.73;2.53;;;24.90;87.40;;;;;;5096869;28;20216;-94
2022/07/14 06:15:30;;;;;;;1.93;1.83;;;25.00;88.00;;;;;;5095275;28;20183;-94
2022/07/14 06:17:56;;;;;;;1.80;1.70;;;25.10;87.40;;;;;;5095366;28;20195;-95
2022/07/14 06:20:22;;;;;;;1.73;1.63;;;25.20;87.60;;;;;;5096692;28;20416;-95
2022/07/14 06:22:49;;;;;;;2.70;2.10;;;25.30;87.30;;;;;;5095590;28;21037;-95
2022/07/14 06:25:15;;;;;;;1.93;1.83;;;25.30;86.70;;;;;;5095252;28;20516;-95
2022/07/14 06:27:41;;;;;;;2.30;2.10;;;25.30;85.80;;;;;;5095345;28;20438;-94
2022/07/14 06:30:08;;;;;;;2.50;1.93;;;25.40;85.60;;;;;;5095572;28;20421;-94
2022/07/14 06:32:36;;;;;;;1.80;1.70;;;25.50;85.40;;;;;;5094655;28;20510;-94
2022/07/14 06:35:02;;;;;;;2.03;1.93;;;25.50;85.10;;;;;;5111027;28;20403;-95
2022/07/14 06:37:28;;;;;;;2.27;2.07;;;25.60;84.90;;;;;;5120330;28;20455;-94
2022/07/14 06:39:53;;;;;;;3.70;1.83;;;25.60;85.20;;;;;;5114295;28;20220;-94
2022/07/14 06:42:19;;;;;;;4.60;1.70;;;25.70;84.90;;;;;;5109749;28;20460;-94
2022/07/14 06:44:45;;;;;;;1.90;1.73;;;25.80;84.90;;;;;;5108307;28;20184;-95
2022/07/14 06:47:12;;;;;;;2.33;1.97;;;25.80;85.00;;;;;;5104702;28;20664;-94
2022/07/14 06:49:38;;;;;;;2.10;1.90;;;25.90;84.10;;;;;;5107531;28;20239;-94
2022/07/14 06:52:05;;;;;;;1.70;1.60;;;25.90;84.40;;;;;;5109973;28;20547;-94
2022/07/14 06:54:31;;;;;;;3.17;1.97;;;26.00;84.10;;;;;;5109424;28;20215;-94
2022/07/14 06:56:56;;;;;;;1.73;1.63;;;26.00;84.20;;;;;;5113586;28;20451;-94
2022/07/14 06:59:22;;;;;;;1.97;1.83;;;26.10;85.10;;;;;;5115999;28;20479;-94
2022/07/14 07:01:51;;;;;;;1.93;1.70;;;26.20;84.80;;;;;;5113334;28;20282;-94
2022/07/14 07:04:17;;;;;;;28.33;15.50;;;26.30;84.00;;;;;;5100394;28;20271;-94
2022/07/14 07:06:45;;;;;;;20.40;12.37;;;26.30;83.80;;;;;;5106169;28;20579;-94
2022/07/14 07:09:13;;;;;;;3.87;3.30;;;26.40;83.90;;;;;;5105029;28;20635;-93
2022/07/14 07:11:39;;;;;;;3.17;2.87;;;26.40;83.20;;;;;;5106508;28;20452;-94
2022/07/14 07:14:05;;;;;;;1.77;1.67;;;26.50;83.40;;;;;;5108767;28;20876;-93
2022/07/14 07:16:31;;;;;;;1.80;1.70;;;26.60;83.20;;;;;;5117745;28;20824;-94
2022/07/14 07:18:57;;;;;;;2.20;2.10;;;26.60;82.70;;;;;;5105891;28;20420;-94
2022/07/14 07:21:23;;;;;;;2.13;2.03;;;26.70;84.00;;;;;;5101785;28;20448;-94
2022/07/14 07:23:49;;;;;;;1.50;1.40;;;26.80;82.80;;;;;;5099681;28;20184;-94
2022/07/14 07:26:16;;;;;;;2.17;1.70;;;26.90;84.30;;;;;;5103750;28;20192;-93
2022/07/14 07:28:41;;;;;;;3.20;2.37;;;27.00;82.80;;;;;;5094735;28;20425;-94
2022/07/14 07:31:07;;;;;;;2.00;1.90;;;27.00;82.30;;;;;;5095359;28;20421;-94
2022/07/14 07:33:33;;;;;;;2.10;1.70;;;27.10;83.20;;;;;;5099776;28;20257;-93
2022/07/14 07:36:00;;;;;;;2.20;2.10;;;27.20;82.00;;;;;;5096899;28;20437;-94
2022/07/14 07:38:27;;;;;;;2.57;2.27;;;27.30;81.90;;;;;;5129307;27;20512;-93
2022/07/14 07:40:53;;;;;;;2.63;1.80;;;27.30;81.70;;;;;;5105120;28;20448;-95
2022/07/14 07:43:21;;;;;;;3.00;1.60;;;27.40;81.10;;;;;;5095334;28;20480;-93
2022/07/14 07:45:47;;;;;;;2.23;2.00;;;27.50;81.10;;;;;;5102708;28;20442;-95
2022/07/14 07:48:13;;;;;;;1.83;1.73;;;27.60;81.10;;;;;;5115871;28;20431;-93
2022/07/14 07:50:42;;;;;;;1.33;1.27;;;27.60;80.90;;;;;;5110781;28;20446;-94
2022/07/14 07:53:09;;;;;;;1.50;1.40;;;27.70;80.60;;;;;;5100147;28;20468;-94
2022/07/14 07:55:34;;;;;;;1.63;1.53;;;27.80;80.50;;;;;;5094925;28;20443;-94
2022/07/14 07:58:03;;;;;;;2.00;1.90;;;27.90;80.30;;;;;;5111763;28;20436;-93
2022/07/14 08:00:30;;;;;;;1.80;1.70;;;27.90;80.10;;;;;;5100538;28;20660;-94
2022/07/14 08:03:01;;;;;;;2.00;1.90;;;28.00;79.80;;;;;;5112924;28;20566;-95
2022/07/14 08:05:28;;;;;;;1.60;1.50;;;28.10;79.70;;;;;;5105420;28;20436;-95
2022/07/14 08:07:54;;;;;;;2.23;1.23;;;28.10;79.40;;;;;;5105948;28;20526;-95
2022/07/14 08:10:20;;;;;;;1.90;1.80;;;28.20;79.30;;;;;;5105793;28;20452;-94
2022/07/14 08:12:46;;;;;;;2.60;1.80;;;28.30;79.30;;;;;;5098640;28;20533;-95
2022/07/14 08:15:14;;;;;;;1.73;1.63;;;28.30;79.20;;;;;;5099507;28;20438;-94
2022/07/14 08:17:40;;;;;;;2.77;2.10;;;28.30;78.80;;;;;;5102283;28;20440;-94
2022/07/14 08:20:10;;;;;;;3.10;1.87;;;28.40;78.70;;;;;;5095699;28;20421;-96
2022/07/14 08:22:37;;;;;;;2.10;1.90;;;28.40;78.70;;;;;;5098874;28;20449;-95
2022/07/14 08:25:06;;;;;;;2.40;1.80;;;28.50;78.70;;;;;;5109781;28;20420;-95
2022/07/14 08:27:33;;;;;;;1.60;1.50;;;28.60;78.60;;;;;;5120385;28;20547;-95
2022/07/14 08:29:59;;;;;;;7.03;2.00;;;28.70;78.50;;;;;;5095402;28;20850;-95
2022/07/14 08:32:38;;;;;;;1.80;1.70;;;28.80;78.10;;;;;;5101938;28;20458;-95
2022/07/14 08:35:08;;;;;;;2.20;1.67;;;28.80;77.80;;;;;;5104108;28;20430;-95
2022/07/14 08:37:34;;;;;;;1.40;1.30;;;28.90;77.90;;;;;;5101410;28;20449;-95
2022/07/14 08:40:01;;;;;;;1.67;1.57;;;29.00;77.30;;;;;;5113106;28;20429;-94
2022/07/14 08:42:29;;;;;;;1.50;1.40;;;29.00;77.60;;;;;;5101350;28;20448;-94
2022/07/14 08:44:55;;;;;;;1.97;1.47;;;29.10;77.30;;;;;;5106635;28;20492;-94
2022/07/14 08:47:21;;;;;;;1.77;1.67;;;29.10;77.30;;;;;;5106309;28;20858;-95
2022/07/14 08:49:47;;;;;;;1.80;1.70;;;29.20;77.30;;;;;;5099810;28;20427;-94
2022/07/14 08:52:17;;;;;;;5.53;2.10;;;29.20;77.20;;;;;;5099779;28;20807;-95
2022/07/14 08:54:45;;;;;;;2.60;1.60;;;29.30;76.70;;;;;;5112098;27;20472;-95
2022/07/14 08:57:11;;;;;;;1.70;1.60;;;29.40;76.90;;;;;;5113101;28;20459;-94
2022/07/14 08:59:38;;;;;;;1.90;1.60;;;29.40;76.70;;;;;;5108341;28;20437;-94
2022/07/14 09:02:04;;;;;;;1.43;1.37;;;29.50;77.30;;;;;;5101422;28;20458;-95
2022/07/14 09:04:33;;;;;;;1.60;1.50;;;29.60;76.60;;;;;;5103054;28;20436;-94
2022/07/14 09:06:59;;;;;;;2.90;1.73;;;29.70;76.10;;;;;;5104379;28;21007;-95
2022/07/14 09:09:31;;;;;;;2.03;1.43;;;29.90;74.70;;;;;;5101475;28;20436;-93
2022/07/14 09:12:01;;;;;;;1.90;1.80;;;30.00;75.30;;;;;;5103815;28;20205;-95
2022/07/14 09:15:44;;;;;;;3.83;1.50;;;30.10;75.20;;;;;;5106272;28;20499;-94
2022/07/14 09:17:18;;;;;;;3.10;1.50;;;30.10;74.90;;;;;;5102792;28;21006;-95
2022/07/14 09:20:09;;;;;;;2.33;1.90;;;30.20;74.40;;;;;;5109139;28;20510;-96
2022/07/14 09:22:38;;;;;;;1.60;1.50;;;30.30;72.80;;;;;;5108254;28;21072;-95
2022/07/14 09:25:09;;;;;;;1.80;1.70;;;30.50;72.50;;;;;;5099389;28;20501;-95
2022/07/14 09:27:36;;;;;;;1.40;1.30;;;30.60;73.20;;;;;;5107940;28;20474;-94
2022/07/14 09:30:04;;;;;;;1.77;1.67;;;30.60;73.50;;;;;;5098224;28;20504;-94
2022/07/14 09:32:57;;;;;;;1.83;1.60;;;30.70;73.60;;;;;;5109503;28;20544;-95
2022/07/14 09:35:26;;;;;;;1.90;1.80;;;30.60;74.00;;;;;;5109619;28;20501;-95
2022/07/14 09:37:54;;;;;;;1.83;1.50;;;30.60;74.00;;;;;;5121256;27;20526;-95
2022/07/14 09:40:25;;;;;;;1.77;1.67;;;30.60;74.10;;;;;;5092447;28;20792;-95
2022/07/14 09:42:53;;;;;;;1.70;1.60;;;30.60;73.70;;;;;;5102471;28;20416;-95
2022/07/14 09:45:22;;;;;;;1.90;1.80;;;30.70;72.60;;;;;;5118858;28;20444;-95
2022/07/14 09:48:09;;;;;;;3.40;1.60;;;30.90;73.10;;;;;;5107467;28;20211;-95
2022/07/14 09:51:06;;;;;;;1.83;1.60;;;30.90;73.10;;;;;;5091285;28;20512;-95
2022/07/14 09:53:34;;;;;;;2.63;1.50;;;31.00;73.30;;;;;;5088378;28;20536;-95
2022/07/14 09:56:01;;;;;;;4.20;1.80;;;31.10;72.10;;;;;;5102259;28;20785;-96
2022/07/14 09:58:45;;;;;;;1.40;1.10;;;31.20;71.70;;;;;;5097181;28;20459;-94
2022/07/14 10:01:12;;;;;;;2.43;1.53;;;31.20;72.80;;;;;;5095754;28;20428;-95
2022/07/14 10:03:40;;;;;;;1.50;1.40;;;31.30;70.50;;;;;;5108735;28;20414;-94
2022/07/14 10:06:06;;;;;;;2.07;1.53;;;31.50;70.10;;;;;;5109689;28;20466;-95
2022/07/14 10:08:40;;;;;;;4.20;1.40;;;31.60;70.90;;;;;;5111046;28;20408;-95
2022/07/14 10:11:06;;;;;;;1.53;1.43;;;31.60;71.20;;;;;;5095478;28;20512;-94
2022/07/14 10:13:32;;;;;;;6.07;3.50;;;31.60;71.40;;;;;;5101295;28;20503;-95
2022/07/14 10:15:59;;;;;;;2.10;1.90;;;31.60;71.80;;;;;;5109929;28;20854;-94
2022/07/14 10:18:27;;;;;;;1.90;1.70;;;31.70;70.00;;;;;;5102074;28;20811;-94
2022/07/14 10:20:55;;;;;;;1.67;1.37;;;31.60;71.50;;;;;;5111855;28;20447;-95
2022/07/14 10:23:22;;;;;;;1.27;1.17;;;31.70;71.10;;;;;;5112587;28;20432;-95
2022/07/14 10:25:58;;;;;;;3.23;1.50;;;31.80;71.20;;;;;;5114115;28;20476;-96
2022/07/14 10:28:26;;;;;;;1.40;1.40;;;31.90;70.90;;;;;;5095521;28;20507;-95
2022/07/14 10:31:16;;;;;;;1.53;1.47;;;31.90;70.70;;;;;;5114128;28;20507;-95
2022/07/14 10:34:29;;;;;;;1.40;1.30;;;32.00;67.50;;;;;;5117117;28;20995;-96
2022/07/14 10:37:13;;;;;;;3.70;1.30;;;32.20;67.40;;;;;;5043873;28;20576;-96
2022/07/14 10:40:08;;;;;;;1.57;1.47;;;32.40;67.50;;;;;;5112361;28;20500;-95
2022/07/14 10:42:58;;;;;;;1.20;1.20;;;32.40;69.20;;;;;;5105443;28;20440;-94
2022/07/14 10:45:26;;;;;;;3.80;1.47;;;32.40;69.30;;;;;;5103025;28;20456;-94
2022/07/14 10:47:53;;;;;;;1.40;1.30;;;32.40;69.60;;;;;;5113827;28;20432;-95
2022/07/14 10:50:21;;;;;;;1.53;1.43;;;32.40;68.20;;;;;;5107940;28;20765;-96
2022/07/14 10:52:59;;;;;;;1.67;1.57;;;32.50;68.90;;;;;;5105137;28;20458;-94
2022/07/14 10:55:28;;;;;;;1.70;1.60;;;32.50;69.80;;;;;;5105591;28;20425;-95
2022/07/14 10:58:00;;;;;;;1.50;1.40;;;32.50;69.00;;;;;;5104014;28;20494;-95
2022/07/14 11:00:43;;;;;;;1.40;1.27;;;32.60;69.80;;;;;;5113840;28;20832;-95
2022/07/14 11:03:21;;;;;;;1.80;1.60;;;32.60;69.20;;;;;;5115040;28;20497;-95
2022/07/14 11:06:08;;;;;;;1.90;1.03;;;32.70;67.20;;;;;;5114624;28;20472;-95
2022/07/14 11:08:43;;;;;;;2.20;1.17;;;32.80;67.20;;;;;;5114808;28;20546;-95
2022/07/14 11:11:20;;;;;;;1.70;1.50;;;32.80;66.50;;;;;;5114499;28;20454;-95
2022/07/14 11:14:13;;;;;;;2.50;2.30;;;32.90;66.40;;;;;;5113117;28;20470;-95
2022/07/14 11:16:50;;;;;;;2.33;1.37;;;32.90;66.00;;;;;;5113564;28;20491;-94
2022/07/14 11:19:24;;;;;;;1.30;1.20;;;33.00;67.30;;;;;;5115208;28;20408;-95
2022/07/14 11:22:14;;;;;;;1.27;1.27;;;32.90;68.40;;;;;;5113251;28;20463;-95
2022/07/14 11:24:53;;;;;;;1.37;1.27;;;32.90;68.60;;;;;;5106914;28;20439;-94
2022/07/14 11:27:27;;;;;;;1.67;1.57;;;32.90;68.60;;;;;;5103257;28;20494;-94
2022/07/14 11:30:16;;;;;;;1.27;1.20;;;32.90;66.40;;;;;;5094223;28;20439;-94
2022/07/14 11:32:42;;;;;;;1.03;1.03;;;32.90;66.40;;;;;;5108764;28;20429;-94
2022/07/14 11:37:58;;;;;;;2.00;1.90;;;33.00;67.20;;;;;;5114335;28;20427;-95
2022/07/14 11:40:51;;;;;;;4.00;1.47;;;33.00;67.80;;;;;;5113485;28;20440;-94
2022/07/14 11:43:29;;;;;;;1.27;1.20;;;33.00;68.60;;;;;;5110008;28;20456;-94
2022/07/14 11:46:11;;;;;;;1.40;1.30;;;33.00;68.70;;;;;;5113305;28;20450;-94
2022/07/14 11:48:40;;;;;;;2.40;1.70;;;33.00;67.30;;;;;;5097553;28;20440;-95
2022/07/14 11:51:32;;;;;;;1.60;1.13;;;33.10;66.30;;;;;;5102787;28;20435;-95
2022/07/14 11:54:00;;;;;;;3.90;1.67;;;33.10;65.90;;;;;;5110461;28;20475;-95
2022/07/14 11:56:28;;;;;;;2.37;1.60;;;33.20;67.60;;;;;;5105343;28;20468;-94
2022/07/14 11:59:03;;;;;;;2.20;1.50;;;33.10;67.50;;;;;;5108081;28;20420;-95
2022/07/14 12:01:38;;;;;;;1.10;1.10;;;33.10;65.80;;;;;;5111815;28;20534;-96
2022/07/14 12:04:12;;;;;;;1.77;1.67;;;33.20;65.90;;;;;;5100353;28;20482;-94
2022/07/14 12:06:40;;;;;;;1.43;1.33;;;33.20;67.20;;;;;;5108985;28;20857;-94
2022/07/14 12:09:06;;;;;;;1.60;1.50;;;33.20;65.60;;;;;;5100393;28;20860;-95
2022/07/14 12:11:32;;;;;;;1.20;1.20;;;33.20;65.00;;;;;;5103003;28;20598;-95
2022/07/14 12:13:59;;;;;;;1.37;1.27;;;33.40;65.60;;;;;;5101858;28;20208;-94
2022/07/14 12:16:24;;;;;;;1.17;1.17;;;33.40;66.20;;;;;;5104776;28;20208;-95
2022/07/14 12:18:56;;;;;;;1.37;1.27;;;33.40;64.90;;;;;;5095159;28;20482;-95
2022/07/14 12:21:35;;;;;;;1.40;1.30;;;33.50;65.30;;;;;;5103202;28;20207;-94
2022/07/14 12:24:02;;;;;;;1.50;1.40;;;33.50;66.50;;;;;;5108457;28;20461;-94
2022/07/14 12:26:28;;;;;;;1.50;1.40;;;33.40;67.10;;;;;;5103250;28;20551;-95
2022/07/14 12:28:56;;;;;;;1.30;1.20;;;33.50;66.90;;;;;;5102377;28;20468;-95
2022/07/14 12:31:22;;;;;;;1.47;1.37;;;33.50;66.10;;;;;;5103411;28;20559;-94
2022/07/14 12:33:51;;;;;;;1.20;1.20;;;33.60;64.20;;;;;;5100993;28;20467;-94
2022/07/14 12:36:20;;;;;;;1.60;1.50;;;33.70;64.70;;;;;;5099655;28;20450;-95
2022/07/14 12:38:46;;;;;;;1.60;1.50;;;33.70;65.10;;;;;;5100458;28;20429;-94
2022/07/14 12:41:15;;;;;;;1.30;1.20;;;33.80;64.10;;;;;;5100188;28;20505;-95
2022/07/14 12:43:42;;;;;;;1.30;1.20;;;33.90;63.50;;;;;;5099123;28;20495;-94
2022/07/14 12:46:16;;;;;;;1.63;1.53;;;33.90;62.40;;;;;;5105143;28;21078;-94
2022/07/14 12:48:51;;;;;;;1.60;1.50;;;34.00;62.80;;;;;;5111322;28;20492;-95
2022/07/14 12:51:24;;;;;;;2.30;1.40;;;34.10;63.10;;;;;;5105123;28;20436;-94
2022/07/14 12:54:00;;;;;;;11.10;1.73;;;34.10;63.10;;;;;;5098352;28;20465;-95
2022/07/14 12:56:28;;;;;;;1.70;1.60;;;34.00;64.50;;;;;;5093489;28;20440;-95
2022/07/14 12:58:56;;;;;;;1.80;1.70;;;34.00;63.60;;;;;;5104725;28;20440;-94
2022/07/14 13:01:24;;;;;;;1.73;1.63;;;34.00;65.50;;;;;;5101447;28;20464;-95
2022/07/14 13:03:59;;;;;;;1.60;1.47;;;33.90;63.70;;;;;;5102695;28;20498;-92